BAW4CD EIDW-EGFF
Flight info
| Callsign | BAW4CD |
|---|---|
| Flight time | 0h 34m |
| Altitude | 29000 |
| Route | PESIT2J PESIT DCT BAKUR DCT GUBJE DCT ADHAV DCT AGCAT/N0419F230 Q63 BAJJA |
| Aircraft | A319/M-SDE3FGHIRWY/LB1 |
Departure
| Time | 2026-05-08 11:49 |
|---|---|
| Airport | Dublin Airport (EIDW) |
Arrival
| Time | 2026-05-08 12:23 |
|---|---|
| Airport | Cardiff International Airport (EGFF) |
| Time | Latitude | Longitude | Altitude | Speed | Heading |
|---|---|---|---|---|---|
| 2026-05-08 11:30 | 53.42324 | -6.24262 | 204 ft | 0 kts | 315° |
| 2026-05-08 11:39 | 53.42321 | -6.24258 | 204 ft | 3 kts | 315° |
| 2026-05-08 11:39 | 53.42303 | -6.24226 | 203 ft | 3 kts | 315° |
| 2026-05-08 11:39 | 53.42296 | -6.24188 | 203 ft | 3 kts | 259° |
| 2026-05-08 11:40 | 53.42304 | -6.24161 | 203 ft | 0 kts | 224° |
| 2026-05-08 11:41 | 53.42301 | -6.24166 | 203 ft | 2 kts | 224° |
| 2026-05-08 11:42 | 53.42279 | -6.24202 | 202 ft | 6 kts | 224° |
| 2026-05-08 11:42 | 53.42236 | -6.24270 | 200 ft | 10 kts | 224° |
| 2026-05-08 11:42 | 53.42201 | -6.24395 | 198 ft | 13 kts | 263° |
| 2026-05-08 11:42 | 53.42198 | -6.24559 | 198 ft | 14 kts | 273° |
| 2026-05-08 11:43 | 53.42197 | -6.24727 | 199 ft | 12 kts | 245° |
| 2026-05-08 11:43 | 53.42190 | -6.24857 | 201 ft | 11 kts | 274° |
| 2026-05-08 11:43 | 53.42195 | -6.24992 | 202 ft | 12 kts | 275° |
| 2026-05-08 11:43 | 53.42204 | -6.25134 | 204 ft | 11 kts | 275° |
| 2026-05-08 11:44 | 53.42211 | -6.25279 | 206 ft | 16 kts | 276° |
| 2026-05-08 11:44 | 53.42224 | -6.25520 | 211 ft | 25 kts | 275° |
| 2026-05-08 11:44 | 53.42241 | -6.25831 | 211 ft | 26 kts | 276° |
| 2026-05-08 11:44 | 53.42259 | -6.26122 | 214 ft | 24 kts | 275° |
| 2026-05-08 11:45 | 53.42274 | -6.26391 | 219 ft | 21 kts | 275° |
| 2026-05-08 11:45 | 53.42287 | -6.26623 | 223 ft | 19 kts | 276° |
| 2026-05-08 11:45 | 53.42296 | -6.26839 | 227 ft | 17 kts | 275° |
| 2026-05-08 11:45 | 53.42312 | -6.27109 | 227 ft | 29 kts | 278° |
| 2026-05-08 11:46 | 53.42334 | -6.27489 | 231 ft | 36 kts | 275° |
| 2026-05-08 11:46 | 53.42358 | -6.27905 | 235 ft | 33 kts | 276° |
| 2026-05-08 11:46 | 53.42378 | -6.28277 | 238 ft | 30 kts | 275° |
| 2026-05-08 11:46 | 53.42396 | -6.28610 | 241 ft | 27 kts | 275° |
| 2026-05-08 11:47 | 53.42415 | -6.28909 | 246 ft | 24 kts | 277° |
| 2026-05-08 11:47 | 53.42325 | -6.29071 | 248 ft | 21 kts | 179° |
| 2026-05-08 11:47 | 53.42242 | -6.28974 | 245 ft | 12 kts | 88° |
| 2026-05-08 11:47 | 53.42237 | -6.28889 | 243 ft | 0 kts | 94° |
| 2026-05-08 11:48 | 53.42218 | -6.28453 | 238 ft | 76 kts | 97° |
| 2026-05-08 11:48 | 53.42148 | -6.27199 | 228 ft | 140 kts | 97° |
| 2026-05-08 11:48 | 53.42023 | -6.25424 | 635 ft | 157 kts | 97° |
| 2026-05-08 11:49 | 53.41890 | -6.23591 | 1282 ft | 162 kts | 96° |
| 2026-05-08 11:49 | 53.41767 | -6.21743 | 2005 ft | 162 kts | 94° |
| 2026-05-08 11:49 | 53.41686 | -6.19822 | 2547 ft | 175 kts | 94° |
| 2026-05-08 11:49 | 53.41596 | -6.17685 | 3055 ft | 192 kts | 94° |
| 2026-05-08 11:50 | 53.41486 | -6.15392 | 3581 ft | 211 kts | 95° |
| 2026-05-08 11:50 | 53.41353 | -6.12850 | 4166 ft | 229 kts | 95° |
| 2026-05-08 11:50 | 53.41203 | -6.10097 | 4770 ft | 247 kts | 96° |
| 2026-05-08 11:50 | 53.41040 | -6.07164 | 5405 ft | 264 kts | 96° |
| 2026-05-08 11:51 | 53.40813 | -6.04081 | 6280 ft | 271 kts | 105° |
| 2026-05-08 11:51 | 53.39925 | -6.01375 | 7207 ft | 271 kts | 135° |
| 2026-05-08 11:51 | 53.38368 | -5.99701 | 8134 ft | 272 kts | 162° |
| 2026-05-08 11:51 | 53.36507 | -5.99397 | 9032 ft | 274 kts | 187° |
| 2026-05-08 11:52 | 53.34648 | -5.99941 | 9907 ft | 277 kts | 190° |
| 2026-05-08 11:52 | 53.32736 | -6.00524 | 10660 ft | 283 kts | 190° |
| 2026-05-08 11:52 | 53.30766 | -6.01102 | 11079 ft | 300 kts | 190° |
| 2026-05-08 11:52 | 53.28649 | -6.01821 | 11450 ft | 319 kts | 193° |
| 2026-05-08 11:53 | 53.26458 | -6.02829 | 11827 ft | 335 kts | 197° |
| 2026-05-08 11:53 | 53.24229 | -6.03967 | 12468 ft | 342 kts | 197° |
| 2026-05-08 11:53 | 53.21943 | -6.05126 | 13219 ft | 345 kts | 196° |
| 2026-05-08 11:53 | 53.19632 | -6.06069 | 13932 ft | 348 kts | 192° |
| 2026-05-08 11:54 | 53.17227 | -6.06727 | 14654 ft | 352 kts | 187° |
| 2026-05-08 11:54 | 53.14807 | -6.07156 | 15345 ft | 355 kts | 186° |
| 2026-05-08 11:54 | 53.12339 | -6.07352 | 16011 ft | 359 kts | 179° |
| 2026-05-08 11:54 | 53.09866 | -6.06958 | 16677 ft | 363 kts | 171° |
| 2026-05-08 11:55 | 53.07413 | -6.06015 | 17324 ft | 366 kts | 166° |
| 2026-05-08 11:55 | 53.04946 | -6.04893 | 17970 ft | 369 kts | 166° |
| 2026-05-08 11:55 | 53.02470 | -6.03746 | 18570 ft | 372 kts | 166° |
| 2026-05-08 11:55 | 52.99999 | -6.02604 | 19152 ft | 375 kts | 166° |
| 2026-05-08 11:56 | 52.97464 | -6.01438 | 19729 ft | 378 kts | 167° |
| 2026-05-08 11:56 | 52.94955 | -6.00291 | 20275 ft | 381 kts | 167° |
| 2026-05-08 11:56 | 52.92403 | -5.99130 | 20794 ft | 384 kts | 167° |
| 2026-05-08 11:56 | 52.89816 | -5.97957 | 21317 ft | 387 kts | 167° |
| 2026-05-08 11:57 | 52.87197 | -5.96770 | 21841 ft | 390 kts | 168° |
| 2026-05-08 11:57 | 52.84583 | -5.95589 | 22339 ft | 392 kts | 168° |
| 2026-05-08 11:57 | 52.81977 | -5.94414 | 22789 ft | 395 kts | 168° |
| 2026-05-08 11:57 | 52.79308 | -5.93212 | 23238 ft | 398 kts | 168° |
| 2026-05-08 11:58 | 52.76647 | -5.92013 | 23684 ft | 401 kts | 168° |
| 2026-05-08 11:58 | 52.73968 | -5.90808 | 24163 ft | 403 kts | 168° |
| 2026-05-08 11:58 | 52.71256 | -5.89589 | 24625 ft | 406 kts | 168° |
| 2026-05-08 11:59 | 52.65795 | -5.87143 | 25454 ft | 412 kts | 169° |
| 2026-05-08 11:59 | 52.63007 | -5.85895 | 25881 ft | 415 kts | 169° |
| 2026-05-08 11:59 | 52.60212 | -5.84649 | 26286 ft | 418 kts | 169° |
| 2026-05-08 11:59 | 52.57428 | -5.83406 | 26694 ft | 421 kts | 169° |
| 2026-05-08 12:00 | 52.54599 | -5.82148 | 27009 ft | 424 kts | 169° |
| 2026-05-08 12:00 | 52.51765 | -5.80888 | 27030 ft | 424 kts | 169° |
| 2026-05-08 12:00 | 52.48915 | -5.79621 | 27031 ft | 424 kts | 169° |
| 2026-05-08 12:00 | 52.46099 | -5.78373 | 27031 ft | 424 kts | 168° |
| 2026-05-08 12:01 | 52.43246 | -5.77111 | 27029 ft | 424 kts | 169° |
| 2026-05-08 12:01 | 52.40408 | -5.75854 | 27030 ft | 424 kts | 169° |
| 2026-05-08 12:01 | 52.37572 | -5.74542 | 27030 ft | 425 kts | 168° |
| 2026-05-08 12:01 | 52.34772 | -5.73174 | 27033 ft | 425 kts | 167° |
| 2026-05-08 12:02 | 52.31933 | -5.71774 | 27030 ft | 426 kts | 167° |
| 2026-05-08 12:02 | 52.29089 | -5.70381 | 27032 ft | 425 kts | 167° |
| 2026-05-08 12:02 | 52.26283 | -5.69009 | 27034 ft | 425 kts | 166° |
| 2026-05-08 12:02 | 52.23505 | -5.67472 | 27038 ft | 427 kts | 164° |
| 2026-05-08 12:03 | 52.20742 | -5.65676 | 27039 ft | 428 kts | 161° |
| 2026-05-08 12:03 | 52.17996 | -5.63816 | 27041 ft | 427 kts | 161° |
| 2026-05-08 12:03 | 52.15268 | -5.61983 | 27039 ft | 428 kts | 162° |
| 2026-05-08 12:03 | 52.12508 | -5.60132 | 27037 ft | 428 kts | 161° |
| 2026-05-08 12:04 | 52.09757 | -5.58287 | 27040 ft | 427 kts | 161° |
| 2026-05-08 12:04 | 52.07036 | -5.56350 | 27032 ft | 431 kts | 156° |
| 2026-05-08 12:04 | 52.04538 | -5.53652 | 27037 ft | 438 kts | 144° |
| 2026-05-08 12:04 | 52.02399 | -5.50160 | 27034 ft | 445 kts | 133° |
| 2026-05-08 12:05 | 52.00628 | -5.46067 | 27040 ft | 448 kts | 127° |
| 2026-05-08 12:05 | 51.98945 | -5.41794 | 27038 ft | 448 kts | 126° |
| 2026-05-08 12:05 | 51.97277 | -5.37521 | 27032 ft | 448 kts | 126° |
| 2026-05-08 12:05 | 51.95623 | -5.33334 | 27032 ft | 447 kts | 127° |
| 2026-05-08 12:06 | 51.93917 | -5.29060 | 27028 ft | 447 kts | 127° |
| 2026-05-08 12:06 | 51.92431 | -5.24610 | 27016 ft | 449 kts | 119° |
| 2026-05-08 12:06 | 51.91269 | -5.20300 | 26728 ft | 444 kts | 116° |
| 2026-05-08 12:06 | 51.90107 | -5.15733 | 26069 ft | 442 kts | 116° |
| 2026-05-08 12:07 | 51.88942 | -5.11147 | 25312 ft | 442 kts | 116° |
| 2026-05-08 12:07 | 51.87745 | -5.06512 | 24330 ft | 447 kts | 116° |
| 2026-05-08 12:07 | 51.86549 | -5.01941 | 23685 ft | 443 kts | 116° |
| 2026-05-08 12:07 | 51.85361 | -4.97435 | 23197 ft | 436 kts | 116° |
| 2026-05-08 12:08 | 51.84170 | -4.92953 | 22650 ft | 431 kts | 116° |
| 2026-05-08 12:08 | 51.83002 | -4.88574 | 22073 ft | 427 kts | 116° |
| 2026-05-08 12:08 | 51.81821 | -4.84163 | 21491 ft | 424 kts | 116° |
| 2026-05-08 12:08 | 51.80671 | -4.79879 | 20932 ft | 420 kts | 116° |
| 2026-05-08 12:09 | 51.79519 | -4.75598 | 20396 ft | 416 kts | 116° |
| 2026-05-08 12:09 | 51.78364 | -4.71319 | 19847 ft | 412 kts | 115° |
| 2026-05-08 12:09 | 51.77233 | -4.67135 | 19304 ft | 408 kts | 115° |
| 2026-05-08 12:09 | 51.76113 | -4.62997 | 18775 ft | 404 kts | 115° |
| 2026-05-08 12:10 | 51.74987 | -4.58846 | 18200 ft | 402 kts | 115° |
| 2026-05-08 12:10 | 51.73883 | -4.54779 | 17599 ft | 394 kts | 115° |
| 2026-05-08 12:10 | 51.72808 | -4.50825 | 16960 ft | 376 kts | 115° |
| 2026-05-08 12:10 | 51.71785 | -4.47067 | 16319 ft | 359 kts | 115° |
| 2026-05-08 12:11 | 51.70810 | -4.43494 | 15681 ft | 345 kts | 115° |
| 2026-05-08 12:11 | 51.69861 | -4.40022 | 15043 ft | 332 kts | 115° |
| 2026-05-08 12:11 | 51.68959 | -4.36727 | 14429 ft | 322 kts | 115° |
| 2026-05-08 12:11 | 51.68063 | -4.33465 | 13800 ft | 313 kts | 116° |
| 2026-05-08 12:12 | 51.67206 | -4.30347 | 13170 ft | 305 kts | 116° |
| 2026-05-08 12:12 | 51.66354 | -4.27254 | 12533 ft | 299 kts | 116° |
| 2026-05-08 12:12 | 51.65525 | -4.24244 | 11908 ft | 293 kts | 116° |
| 2026-05-08 12:12 | 51.64713 | -4.21301 | 11306 ft | 287 kts | 116° |
| 2026-05-08 12:13 | 51.63920 | -4.18430 | 10722 ft | 281 kts | 116° |
| 2026-05-08 12:13 | 51.63138 | -4.15600 | 10131 ft | 275 kts | 116° |
| 2026-05-08 12:13 | 51.62363 | -4.12803 | 9554 ft | 270 kts | 116° |
| 2026-05-08 12:13 | 51.61606 | -4.10074 | 8972 ft | 266 kts | 116° |
| 2026-05-08 12:14 | 51.60868 | -4.07415 | 8451 ft | 260 kts | 116° |
| 2026-05-08 12:14 | 51.60145 | -4.04813 | 7954 ft | 254 kts | 116° |
| 2026-05-08 12:14 | 51.59425 | -4.02225 | 7440 ft | 249 kts | 116° |
| 2026-05-08 12:14 | 51.58725 | -3.99710 | 6934 ft | 248 kts | 116° |
| 2026-05-08 12:15 | 51.58009 | -3.97148 | 6482 ft | 251 kts | 116° |
| 2026-05-08 12:15 | 51.57304 | -3.94621 | 6056 ft | 245 kts | 116° |
| 2026-05-08 12:15 | 51.56623 | -3.92179 | 5634 ft | 239 kts | 116° |
| 2026-05-08 12:15 | 51.55956 | -3.89788 | 5253 ft | 230 kts | 116° |
| 2026-05-08 12:16 | 51.55313 | -3.87491 | 4925 ft | 222 kts | 116° |
| 2026-05-08 12:16 | 51.54685 | -3.85250 | 4602 ft | 221 kts | 116° |
| 2026-05-08 12:16 | 51.54053 | -3.83000 | 4279 ft | 223 kts | 116° |
| 2026-05-08 12:16 | 51.53456 | -3.80704 | 3953 ft | 225 kts | 107° |
| 2026-05-08 12:17 | 51.53072 | -3.78241 | 3632 ft | 228 kts | 107° |
| 2026-05-08 12:17 | 51.52582 | -3.75883 | 3372 ft | 221 kts | 113° |
| 2026-05-08 12:17 | 51.52014 | -3.73662 | 3116 ft | 211 kts | 114° |
| 2026-05-08 12:17 | 51.51432 | -3.71551 | 2861 ft | 205 kts | 116° |
| 2026-05-08 12:18 | 51.50819 | -3.69473 | 2615 ft | 206 kts | 117° |
| 2026-05-08 12:18 | 51.50187 | -3.67426 | 2453 ft | 203 kts | 117° |
| 2026-05-08 12:18 | 51.49557 | -3.65431 | 2302 ft | 199 kts | 118° |
| 2026-05-08 12:18 | 51.48936 | -3.63488 | 2181 ft | 194 kts | 118° |
| 2026-05-08 12:19 | 51.48330 | -3.61600 | 2169 ft | 183 kts | 117° |
| 2026-05-08 12:19 | 51.47760 | -3.59823 | 2163 ft | 176 kts | 118° |
| 2026-05-08 12:19 | 51.47204 | -3.58090 | 2173 ft | 176 kts | 118° |
| 2026-05-08 12:19 | 51.46648 | -3.56357 | 2178 ft | 175 kts | 117° |
| 2026-05-08 12:20 | 51.46092 | -3.54614 | 2251 ft | 176 kts | 118° |
| 2026-05-08 12:20 | 51.45540 | -3.52883 | 2205 ft | 171 kts | 117° |
| 2026-05-08 12:20 | 51.45025 | -3.51262 | 2169 ft | 157 kts | 118° |
| 2026-05-08 12:20 | 51.44531 | -3.49708 | 2127 ft | 155 kts | 118° |
| 2026-05-08 12:21 | 51.44040 | -3.48159 | 1933 ft | 154 kts | 117° |
| 2026-05-08 12:21 | 51.43563 | -3.46660 | 1732 ft | 150 kts | 117° |
| 2026-05-08 12:21 | 51.43100 | -3.45201 | 1529 ft | 143 kts | 117° |
| 2026-05-08 12:21 | 51.42659 | -3.43811 | 1371 ft | 140 kts | 116° |
| 2026-05-08 12:22 | 51.42224 | -3.42433 | 1181 ft | 131 kts | 117° |
| 2026-05-08 12:22 | 51.41822 | -3.41163 | 1000 ft | 127 kts | 118° |
| 2026-05-08 12:22 | 51.41419 | -3.39894 | 833 ft | 127 kts | 116° |
| 2026-05-08 12:22 | 51.41024 | -3.38649 | 667 ft | 126 kts | 116° |
| 2026-05-08 12:23 | 51.40626 | -3.37407 | 510 ft | 126 kts | 116° |
| 2026-05-08 12:23 | 51.40232 | -3.36161 | 328 ft | 125 kts | 115° |
| 2026-05-08 12:23 | 51.39843 | -3.34916 | 232 ft | 120 kts | 115° |
| 2026-05-08 12:23 | 51.39575 | -3.34064 | 228 ft | 44 kts | 116° |
| 2026-05-08 12:24 | 51.39500 | -3.33864 | 228 ft | 12 kts | 133° |
| 2026-05-08 12:24 | 51.39520 | -3.33859 | 228 ft | 9 kts | 302° |
| 2026-05-08 12:24 | 51.39562 | -3.33983 | 228 ft | 15 kts | 301° |
| 2026-05-08 12:24 | 51.39601 | -3.33976 | 228 ft | 6 kts | 108° |
| 2026-05-08 12:25 | 51.39613 | -3.33890 | 228 ft | 10 kts | 86° |
| 2026-05-08 12:25 | 51.39653 | -3.33795 | 228 ft | 10 kts | 16° |
| 2026-05-08 12:25 | 51.39691 | -3.33846 | 228 ft | 7 kts | 301° |
| 2026-05-08 12:25 | 51.39728 | -3.33831 | 228 ft | 2 kts | 44° |
| 2026-05-08 12:26 | 51.39745 | -3.33818 | 228 ft | 4 kts | 26° |
| 2026-05-08 12:26 | 51.39753 | -3.33813 | 228 ft | 0 kts | 26° |